sensor_id;sensor_type;location;lat;lon;timestamp;P1;durP1;ratioP1;P2;durP2;ratioP2
63350;SDS011;74263;51.058;17.040;2023-11-19T08:48:00;43.53;;;18.58;;
63350;SDS011;74263;51.058;17.040;2023-11-19T08:53:02;32.57;;;14.73;;
63350;SDS011;74263;51.058;17.040;2023-11-19T08:58:05;36.00;;;15.93;;
63350;SDS011;74263;51.058;17.040;2023-11-19T09:03:07;33.90;;;11.45;;
63350;SDS011;74263;51.058;17.040;2023-11-19T09:08:09;31.73;;;14.35;;
63350;SDS011;74263;51.058;17.040;2023-11-19T09:13:11;28.55;;;13.02;;
63350;SDS011;74263;51.058;17.040;2023-11-19T09:18:12;28.25;;;12.55;;
63350;SDS011;74263;51.058;17.040;2023-11-19T09:23:14;32.25;;;15.50;;
63350;SDS011;74263;51.058;17.040;2023-11-19T09:28:16;26.98;;;11.63;;
63350;SDS011;74263;51.058;17.040;2023-11-19T09:33:18;25.90;;;11.57;;
63350;SDS011;74263;51.058;17.040;2023-11-19T09:38:20;21.48;;;10.25;;
63350;SDS011;74263;51.058;17.040;2023-11-19T09:43:21;21.23;;;10.82;;
63350;SDS011;74263;51.058;17.040;2023-11-19T09:48:23;20.45;;;10.52;;
63350;SDS011;74263;51.058;17.040;2023-11-19T09:53:26;21.52;;;10.70;;
63350;SDS011;74263;51.058;17.040;2023-11-19T09:58:31;22.65;;;11.02;;
63350;SDS011;74263;51.058;17.040;2023-11-19T10:03:38;20.70;;;8.73;;
63350;SDS011;74263;51.058;17.040;2023-11-19T10:13:42;19.30;;;9.43;;
63350;SDS011;74263;51.058;17.040;2023-11-19T10:18:44;23.10;;;10.03;;
63350;SDS011;74263;51.058;17.040;2023-11-19T10:23:50;20.90;;;10.33;;
63350;SDS011;74263;51.058;17.040;2023-11-19T10:28:51;19.88;;;9.98;;
63350;SDS011;74263;51.058;17.040;2023-11-19T10:33:53;23.38;;;10.98;;
63350;SDS011;74263;51.058;17.040;2023-11-19T10:38:56;22.97;;;11.97;;
63350;SDS011;74263;51.058;17.040;2023-11-19T10:43:58;31.48;;;11.98;;
63350;SDS011;74263;51.058;17.040;2023-11-19T10:49:00;21.77;;;10.63;;
63350;SDS011;74263;51.058;17.040;2023-11-19T10:54:03;14.15;;;7.57;;
63350;SDS011;74263;51.058;17.040;2023-11-19T10:59:04;11.18;;;6.35;;
63350;SDS011;74263;51.058;17.040;2023-11-19T11:04:24;7.10;;;4.03;;
63350;SDS011;74263;51.058;17.040;2023-11-19T11:09:26;6.10;;;3.63;;
63350;SDS011;74263;51.058;17.040;2023-11-19T11:14:28;6.85;;;3.60;;
63350;SDS011;74263;51.058;17.040;2023-11-19T11:19:30;3.30;;;2.07;;
63350;SDS011;74263;51.058;17.040;2023-11-19T11:24:58;7.10;;;4.13;;
63350;SDS011;74263;51.058;17.040;2023-11-19T11:40:23;7.18;;;4.15;;
63350;SDS011;74263;51.058;17.040;2023-11-19T11:45:40;8.02;;;4.50;;
63350;SDS011;74263;51.058;17.040;2023-11-19T11:50:47;10.48;;;5.57;;
63350;SDS011;74263;51.058;17.040;2023-11-19T12:00:51;10.32;;;5.60;;
63350;SDS011;74263;51.058;17.040;2023-11-19T12:05:52;8.63;;;4.90;;
63350;SDS011;74263;51.058;17.040;2023-11-19T12:10:54;10.95;;;5.25;;
63350;SDS011;74263;51.058;17.040;2023-11-19T12:21:01;10.67;;;5.43;;
63350;SDS011;74263;51.058;17.040;2023-11-19T12:26:03;10.73;;;5.55;;
63350;SDS011;74263;51.058;17.040;2023-11-19T12:31:08;11.45;;;5.72;;
63350;SDS011;74263;51.058;17.040;2023-11-19T12:36:11;12.25;;;5.68;;
63350;SDS011;74263;51.058;17.040;2023-11-19T12:41:13;11.18;;;5.80;;
63350;SDS011;74263;51.058;17.040;2023-11-19T12:46:22;16.77;;;7.25;;
63350;SDS011;74263;51.058;17.040;2023-11-19T12:51:30;13.75;;;7.50;;
63350;SDS011;74263;51.058;17.040;2023-11-19T12:56:32;17.10;;;7.70;;
63350;SDS011;74263;51.058;17.040;2023-11-19T13:01:35;14.73;;;6.63;;
63350;SDS011;74263;51.058;17.040;2023-11-19T13:06:44;12.80;;;7.00;;
63350;SDS011;74263;51.058;17.040;2023-11-19T13:11:46;16.05;;;7.80;;
63350;SDS011;74263;51.058;17.040;2023-11-19T13:16:48;15.07;;;8.00;;
63350;SDS011;74263;51.058;17.040;2023-11-19T13:21:50;15.97;;;7.90;;
63350;SDS011;74263;51.058;17.040;2023-11-19T13:26:52;17.23;;;8.73;;
63350;SDS011;74263;51.058;17.040;2023-11-19T13:31:54;12.25;;;6.45;;
63350;SDS011;74263;51.058;17.040;2023-11-19T13:36:56;17.20;;;6.85;;
63350;SDS011;74263;51.058;17.040;2023-11-19T13:41:58;13.50;;;5.75;;
63350;SDS011;74263;51.058;17.040;2023-11-19T13:47:03;14.65;;;6.15;;
63350;SDS011;74263;51.058;17.040;2023-11-19T13:52:05;12.83;;;6.63;;
63350;SDS011;74263;51.058;17.040;2023-11-19T13:57:07;13.35;;;6.47;;
63350;SDS011;74263;51.058;17.040;2023-11-19T14:02:10;17.13;;;7.88;;
63350;SDS011;74263;51.058;17.040;2023-11-19T14:07:13;18.92;;;7.35;;
63350;SDS011;74263;51.058;17.040;2023-11-19T14:12:14;17.42;;;6.85;;
63350;SDS011;74263;51.058;17.040;2023-11-19T14:17:19;14.77;;;6.82;;
63350;SDS011;74263;51.058;17.040;2023-11-19T14:22:21;12.05;;;6.55;;
63350;SDS011;74263;51.058;17.040;2023-11-19T14:27:23;10.57;;;5.37;;
